createdAt,value
2022-08-27T00:00:50.466Z,25.26
2022-08-27T00:03:18.945Z,25.19
2022-08-27T00:05:46.824Z,24.75
2022-08-27T00:08:16.737Z,24.75
2022-08-27T00:10:44.505Z,25.05
2022-08-27T00:13:12.114Z,25.02
2022-08-27T00:15:39.893Z,25.10
2022-08-27T00:18:07.630Z,24.99
2022-08-27T00:20:35.512Z,25.25
2022-08-27T00:23:03.471Z,25.35
2022-08-27T00:25:33.307Z,25.05
2022-08-27T00:28:03.844Z,25.13
2022-08-27T00:30:31.602Z,25.21
2022-08-27T00:33:01.889Z,25.02
2022-08-27T00:35:33.040Z,24.98
2022-08-27T00:38:02.961Z,24.82
2022-08-27T00:40:31.360Z,25.04
2022-08-27T00:43:27.581Z,25.08
2022-08-27T00:46:02.846Z,25.15
2022-08-27T00:48:32.255Z,25.47
2022-08-27T00:51:02.790Z,25.16
2022-08-27T00:53:33.500Z,25.12
2022-08-27T00:56:22.013Z,25.09
2022-08-27T00:58:52.689Z,25.34
2022-08-27T01:01:27.255Z,25.12
2022-08-27T01:03:59.984Z,25.40
2022-08-27T01:06:34.433Z,25.55
2022-08-27T01:09:15.241Z,25.40
2022-08-27T01:11:49.994Z,25.14
2022-08-27T01:14:20.654Z,25.37
2022-08-27T01:16:54.582Z,25.29
2022-08-27T01:19:37.578Z,25.40
2022-08-27T01:22:36.025Z,25.46
2022-08-27T01:25:10.690Z,25.29
2022-08-27T01:27:39.688Z,25.36
2022-08-27T01:30:10.039Z,25.54
2022-08-27T01:32:47.806Z,25.27
2022-08-27T01:35:17.438Z,25.30
2022-08-27T01:37:49.589Z,25.15
2022-08-27T01:41:15.138Z,25.27
2022-08-27T01:43:43.518Z,25.42
2022-08-27T01:46:24.677Z,25.30
2022-08-27T01:48:53.376Z,25.10
2022-08-27T01:51:21.551Z,24.91
2022-08-27T01:53:49.859Z,24.78
2022-08-27T01:56:17.595Z,24.84
2022-08-27T01:58:45.663Z,24.91
2022-08-27T02:01:16.986Z,25.01
2022-08-27T02:03:47.405Z,24.81
2022-08-27T02:06:25.843Z,24.87
2022-08-27T02:08:53.540Z,24.40
2022-08-27T02:11:23.925Z,24.72
2022-08-27T02:13:52.577Z,24.50
2022-08-27T02:16:20.530Z,24.57
2022-08-27T02:19:09.768Z,24.51
2022-08-27T02:21:37.658Z,24.49
2022-08-27T02:27:53.689Z,24.57
2022-08-27T02:30:24.293Z,24.40
2022-08-27T02:32:53.202Z,24.55
2022-08-27T02:35:24.294Z,24.75
2022-08-27T02:38:51.263Z,24.78
2022-08-27T02:41:18.877Z,24.70
2022-08-27T02:43:46.992Z,24.28
2022-08-27T02:46:17.816Z,24.19
2022-08-27T02:48:45.488Z,24.45
2022-08-27T02:51:22.884Z,24.71
2022-08-27T02:53:52.273Z,24.85
2022-08-27T02:56:21.933Z,24.79
2022-08-27T02:58:53.854Z,24.78
2022-08-27T03:01:22.327Z,24.70
2022-08-27T03:03:50.211Z,25.04
2022-08-27T03:06:18.379Z,25.00
2022-08-27T03:08:52.936Z,24.83
2022-08-27T03:11:23.630Z,24.77
2022-08-27T03:13:52.203Z,24.50
2022-08-27T03:16:20.360Z,24.26
2022-08-27T03:18:51.258Z,24.15
2022-08-27T03:21:22.608Z,23.89
2022-08-27T03:23:51.791Z,23.96
2022-08-27T03:26:20.117Z,24.07
2022-08-27T03:28:50.106Z,24.23
2022-08-27T03:31:38.048Z,24.67
2022-08-27T03:34:09.374Z,24.65
2022-08-27T03:36:37.452Z,24.66
2022-08-27T03:39:05.184Z,24.78
2022-08-27T03:41:43.845Z,24.66
2022-08-27T03:44:21.876Z,24.95
2022-08-27T03:46:53.895Z,24.79
2022-08-27T03:49:24.342Z,24.72
2022-08-27T03:51:55.663Z,24.69
2022-08-27T03:54:25.147Z,24.93
2022-08-27T03:56:52.892Z,24.93
2022-08-27T03:59:26.243Z,24.84
2022-08-27T04:02:49.454Z,24.94
2022-08-27T04:05:19.746Z,25.08
2022-08-27T04:07:47.816Z,25.11
2022-08-27T04:10:17.752Z,25.10
2022-08-27T04:13:13.408Z,25.04
2022-08-27T04:15:46.764Z,24.74
2022-08-27T04:18:16.853Z,25.01
2022-08-27T04:20:51.603Z,24.97
2022-08-27T04:23:20.670Z,24.81
2022-08-27T04:25:48.601Z,25.02
2022-08-27T04:29:13.580Z,25.23
2022-08-27T04:32:08.998Z,24.91
2022-08-27T04:34:37.173Z,25.03
2022-08-27T04:37:05.985Z,25.24
2022-08-27T04:39:34.146Z,25.21
2022-08-27T04:42:04.943Z,25.19
2022-08-27T04:44:38.322Z,25.31
2022-08-27T04:47:06.248Z,25.28
2022-08-27T04:49:34.183Z,25.55
2022-08-27T04:52:56.324Z,25.87
2022-08-27T04:55:23.981Z,26.10
2022-08-27T04:57:54.125Z,26.10
2022-08-27T05:00:25.203Z,26.01
2022-08-27T05:02:55.949Z,26.01
2022-08-27T05:05:23.855Z,25.67
2022-08-27T05:08:03.437Z,25.30
2022-08-27T05:10:48.867Z,24.97
2022-08-27T05:14:23.630Z,25.47
2022-08-27T05:16:52.908Z,25.55
2022-08-27T05:19:20.883Z,25.66
2022-08-27T05:21:50.623Z,26.05
2022-08-27T05:26:10.085Z,26.00
2022-08-27T05:28:17.301Z,26.42
2022-08-27T05:30:55.592Z,26.49
2022-08-27T05:33:25.687Z,26.66
2022-08-27T05:36:26.465Z,26.84
2022-08-27T05:38:55.960Z,27.04
2022-08-27T05:45:29.789Z,27.01
2022-08-27T05:47:58.873Z,26.86
2022-08-27T05:50:29.501Z,27.32
2022-08-27T05:52:58.382Z,27.45
2022-08-27T05:55:28.543Z,27.10
2022-08-27T05:58:07.841Z,27.63
2022-08-27T06:01:03.531Z,27.59
2022-08-27T06:03:39.091Z,27.94
2022-08-27T06:06:14.810Z,28.17
2022-08-27T06:08:42.684Z,28.35
2022-08-27T06:11:12.919Z,28.57
2022-08-27T06:13:41.790Z,28.66
2022-08-27T06:16:18.650Z,28.93
2022-08-27T06:18:48.353Z,29.41
2022-08-27T06:22:36.395Z,29.75
2022-08-27T06:25:11.696Z,29.89
2022-08-27T06:27:39.419Z,30.31
2022-08-27T06:30:15.776Z,29.96
2022-08-27T06:32:47.876Z,30.43
2022-08-27T06:35:22.989Z,29.57
2022-08-27T06:37:53.407Z,29.94
2022-08-27T06:44:05.838Z,28.75
2022-08-27T06:46:37.807Z,28.52
2022-08-27T06:49:08.050Z,27.98
2022-08-27T06:51:43.394Z,27.92
2022-08-27T06:54:14.386Z,27.83
2022-08-27T06:56:47.319Z,27.87
2022-08-27T06:59:18.277Z,28.05
2022-08-27T07:01:51.533Z,27.95
2022-08-27T07:04:30.761Z,27.80
2022-08-27T07:07:36.524Z,26.70
2022-08-27T07:10:08.515Z,26.94
2022-08-27T07:12:38.705Z,26.01
2022-08-27T07:15:06.912Z,26.47
2022-08-27T07:18:29.432Z,26.44
2022-08-27T07:20:57.303Z,27.24
2022-08-27T07:23:36.134Z,27.93
2022-08-27T07:26:13.951Z,28.65
2022-08-27T07:28:43.525Z,29.46
2022-08-27T07:31:13.495Z,29.89
2022-08-27T07:33:46.191Z,29.41
2022-08-27T07:36:37.641Z,29.20
2022-08-27T07:39:22.900Z,29.59
2022-08-27T07:42:19.467Z,30.36
2022-08-27T07:44:50.228Z,32.23
2022-08-27T07:47:26.330Z,33.64
2022-08-27T07:50:15.806Z,34.44
2022-08-27T07:53:17.107Z,35.20
2022-08-27T07:56:18.394Z,35.98
2022-08-27T07:59:17.557Z,35.21
2022-08-27T08:01:45.306Z,36.03
2022-08-27T08:04:14.969Z,34.97
2022-08-27T08:06:45.577Z,35.35
2022-08-27T08:09:13.019Z,36.07
2022-08-27T08:11:41.609Z,35.93
2022-08-27T08:14:09.080Z,35.52
2022-08-27T08:16:39.023Z,35.75
2022-08-27T08:19:09.675Z,35.04
2022-08-27T08:21:38.713Z,33.31
2022-08-27T08:24:06.711Z,32.49
2022-08-27T08:26:34.374Z,31.80
2022-08-27T08:29:04.965Z,31.06
2022-08-27T08:31:33.094Z,29.28
2022-08-27T08:34:00.997Z,29.12
2022-08-27T08:36:30.635Z,29.08
2022-08-27T08:38:59.314Z,28.99
2022-08-27T08:41:50.535Z,28.69
2022-08-27T08:44:36.665Z,28.02
2022-08-27T08:47:07.041Z,27.90
2022-08-27T08:50:09.004Z,28.20
2022-08-27T08:52:37.318Z,28.29
2022-08-27T08:55:22.130Z,27.76
2022-08-27T08:58:12.507Z,27.49
2022-08-27T09:00:43.558Z,26.70
2022-08-27T09:03:15.493Z,26.73
2022-08-27T09:05:52.796Z,25.85
2022-08-27T09:08:36.593Z,25.39
2022-08-27T09:11:26.869Z,25.38
2022-08-27T09:14:09.273Z,25.09
2022-08-27T09:16:39.186Z,24.97
2022-08-27T09:19:07.038Z,24.72
2022-08-27T09:22:00.181Z,24.76
2022-08-27T09:24:40.435Z,23.86
2022-08-27T09:27:12.729Z,23.88
2022-08-27T09:29:51.769Z,23.72
2022-08-27T09:32:28.499Z,23.61
2022-08-27T09:35:04.621Z,23.20
2022-08-27T09:37:44.883Z,23.12
2022-08-27T09:40:13.225Z,23.38
2022-08-27T09:42:46.514Z,23.41
2022-08-27T09:45:30.151Z,23.10
2022-08-27T09:48:08.021Z,23.05
2022-08-27T09:50:46.903Z,23.14
2022-08-27T09:53:25.409Z,23.40
2022-08-27T09:56:00.779Z,23.27
2022-08-27T09:58:34.501Z,23.06
2022-08-27T10:01:08.572Z,22.96
2022-08-27T10:03:36.090Z,22.82
2022-08-27T10:06:03.670Z,22.08
2022-08-27T10:08:50.643Z,21.34
2022-08-27T10:11:23.780Z,21.25
2022-08-27T10:14:13.871Z,21.07
2022-08-27T10:17:06.260Z,21.11
2022-08-27T10:19:51.979Z,21.46
2022-08-27T10:22:19.331Z,21.10
2022-08-27T10:24:58.931Z,21.05
2022-08-27T10:27:47.987Z,20.95
2022-08-27T10:30:19.854Z,21.51
2022-08-27T10:32:55.013Z,22.08
2022-08-27T10:35:54.497Z,22.27
2022-08-27T10:38:30.827Z,22.07
2022-08-27T10:41:12.506Z,22.57
2022-08-27T10:44:01.535Z,22.70
2022-08-27T10:46:37.872Z,22.45
2022-08-27T10:49:33.483Z,22.32
2022-08-27T10:52:18.851Z,22.43
2022-08-27T10:55:12.928Z,22.04
2022-08-27T10:58:02.412Z,22.03
2022-08-27T11:00:48.494Z,21.99
2022-08-27T11:03:43.421Z,22.03
2022-08-27T11:06:22.201Z,22.13
2022-08-27T11:08:57.132Z,22.26
2022-08-27T11:14:32.977Z,22.26
2022-08-27T11:17:10.011Z,22.11
2022-08-27T11:20:01.719Z,21.92
2022-08-27T11:22:49.672Z,21.68
2022-08-27T11:25:22.881Z,21.76
2022-08-27T11:27:53.738Z,21.70
2022-08-27T11:30:30.406Z,21.59
2022-08-27T11:33:41.651Z,21.60
2022-08-27T11:36:14.476Z,21.76
2022-08-27T11:38:59.932Z,21.08
2022-08-27T11:41:50.970Z,21.00
2022-08-27T11:44:26.978Z,21.56
2022-08-27T11:46:57.851Z,21.63
2022-08-27T11:49:42.333Z,21.73
2022-08-27T11:52:10.665Z,21.73
2022-08-27T11:55:17.798Z,22.06
2022-08-27T11:57:53.530Z,22.00
2022-08-27T12:00:26.689Z,21.90
2022-08-27T12:03:03.394Z,21.97
2022-08-27T12:05:39.113Z,21.71
2022-08-27T12:08:22.605Z,22.05
2022-08-27T12:11:08.885Z,21.97
2022-08-27T12:13:43.776Z,22.09
2022-08-27T12:16:20.486Z,22.01
2022-08-27T12:19:12.682Z,21.62
2022-08-27T12:21:40.035Z,21.44
2022-08-27T12:24:25.705Z,21.45
2022-08-27T12:27:17.078Z,21.85
2022-08-27T12:29:57.744Z,22.15
2022-08-27T12:32:36.580Z,22.24
2022-08-27T12:35:21.187Z,22.37
2022-08-27T12:38:11.907Z,22.55
2022-08-27T12:40:45.976Z,22.83
2022-08-27T12:43:19.215Z,22.90
2022-08-27T12:45:54.030Z,22.60
2022-08-27T12:48:27.174Z,23.11
2022-08-27T12:51:02.717Z,22.47
2022-08-27T12:53:35.484Z,22.82
2022-08-27T12:56:32.420Z,22.75
2022-08-27T12:59:26.044Z,22.72
2022-08-27T13:02:14.972Z,22.97
2022-08-27T13:04:43.725Z,23.18
2022-08-27T13:07:11.137Z,23.10
2022-08-27T13:09:39.844Z,23.29
2022-08-27T13:12:17.771Z,23.16
2022-08-27T13:14:48.949Z,23.59
2022-08-27T13:17:25.989Z,24.10
2022-08-27T13:20:04.395Z,24.17
2022-08-27T13:22:41.132Z,24.12
2022-08-27T13:25:32.187Z,24.40
2022-08-27T13:28:10.571Z,24.24
2022-08-27T13:30:45.093Z,24.35
2022-08-27T13:33:19.713Z,24.40
2022-08-27T13:35:49.896Z,24.19
2022-08-27T13:38:19.400Z,24.53
2022-08-27T13:40:52.800Z,24.68
2022-08-27T13:43:28.441Z,25.12
2022-08-27T13:46:00.735Z,25.42
2022-08-27T13:48:29.745Z,25.40
2022-08-27T13:50:58.468Z,25.68
2022-08-27T13:53:48.272Z,26.02
2022-08-27T13:56:35.144Z,26.21
2022-08-27T13:59:13.133Z,26.30
2022-08-27T14:02:04.894Z,26.34
2022-08-27T14:04:38.552Z,26.01
2022-08-27T14:07:13.633Z,25.79
2022-08-27T14:09:51.299Z,26.04
2022-08-27T14:12:38.179Z,26.25
2022-08-27T14:15:30.651Z,26.43
2022-08-27T14:17:58.530Z,26.07
2022-08-27T14:20:26.662Z,26.10
2022-08-27T14:22:54.161Z,26.55
2022-08-27T14:25:22.745Z,26.20
2022-08-27T14:27:54.523Z,26.17
2022-08-27T14:30:25.240Z,26.19
2022-08-27T14:33:01.390Z,25.48
2022-08-27T14:35:31.028Z,25.96
2022-08-27T14:38:08.867Z,26.39
2022-08-27T14:40:36.406Z,26.58
2022-08-27T14:43:04.434Z,26.39
2022-08-27T14:45:34.261Z,26.54
2022-08-27T14:48:07.967Z,26.77
2022-08-27T14:50:46.060Z,26.79
2022-08-27T14:53:13.444Z,26.55
2022-08-27T14:55:40.984Z,26.77
2022-08-27T14:58:17.168Z,26.09
2022-08-27T15:00:44.596Z,26.66
2022-08-27T15:03:12.731Z,26.05
2022-08-27T15:05:40.130Z,26.43
2022-08-27T15:08:11.784Z,26.13
2022-08-27T15:10:41.247Z,26.44
2022-08-27T15:13:11.283Z,26.90
2022-08-27T15:15:39.184Z,26.66
2022-08-27T15:18:10.095Z,26.80
2022-08-27T15:20:40.296Z,26.67
2022-08-27T15:23:09.635Z,26.73
2022-08-27T15:25:36.983Z,26.76
2022-08-27T15:28:05.248Z,26.61
2022-08-27T15:30:33.572Z,26.58
2022-08-27T15:33:01.037Z,26.61
2022-08-27T15:35:28.584Z,26.63
2022-08-27T15:37:57.659Z,26.96
2022-08-27T15:40:27.011Z,26.36
2022-08-27T15:42:58.542Z,26.64
2022-08-27T15:45:27.622Z,26.94
2022-08-27T15:47:56.225Z,27.17
2022-08-27T15:50:24.647Z,26.64
2022-08-27T15:52:58.297Z,26.49
2022-08-27T15:55:29.929Z,26.82
2022-08-27T15:57:58.544Z,27.47
2022-08-27T16:00:27.072Z,26.77
2022-08-27T16:02:55.272Z,26.77
2022-08-27T16:05:23.093Z,27.00
2022-08-27T16:07:50.685Z,27.41
2022-08-27T16:10:18.408Z,27.21
2022-08-27T16:12:47.349Z,27.11
2022-08-27T16:15:15.250Z,26.80
2022-08-27T16:17:44.105Z,26.74
2022-08-27T16:20:14.988Z,27.16
2022-08-27T16:22:49.063Z,27.28
2022-08-27T16:25:20.588Z,27.02
2022-08-27T16:27:48.087Z,26.63
2022-08-27T16:30:15.775Z,27.03
2022-08-27T16:32:47.416Z,27.28
2022-08-27T16:35:16.248Z,26.86
2022-08-27T16:37:44.286Z,27.13
2022-08-27T16:40:13.869Z,27.39
2022-08-27T16:42:46.087Z,27.36
2022-08-27T16:45:14.814Z,27.47
2022-08-27T16:48:00.998Z,27.36
2022-08-27T16:50:34.556Z,27.22
2022-08-27T16:53:08.492Z,26.82
2022-08-27T16:55:37.830Z,26.89
2022-08-27T16:58:19.414Z,26.42
2022-08-27T17:00:50.632Z,26.51
2022-08-27T17:03:21.584Z,26.14
2022-08-27T17:05:49.636Z,26.43
2022-08-27T17:08:19.282Z,26.65
2022-08-27T17:10:49.952Z,25.90
2022-08-27T17:13:28.425Z,25.86
2022-08-27T17:15:56.969Z,26.19
2022-08-27T17:18:27.644Z,25.82
2022-08-27T17:20:56.411Z,25.72
2022-08-27T17:23:30.956Z,26.16
2022-08-27T17:25:58.462Z,25.87
2022-08-27T17:28:25.846Z,25.39
2022-08-27T17:30:54.941Z,25.39
2022-08-27T17:33:31.316Z,25.27
2022-08-27T17:36:01.113Z,25.14
2022-08-27T17:38:33.953Z,25.35
2022-08-27T17:41:09.912Z,25.28
2022-08-27T17:43:37.889Z,25.25
2022-08-27T17:46:05.534Z,25.05
2022-08-27T17:48:33.011Z,25.06
2022-08-27T17:51:03.970Z,24.86
2022-08-27T17:53:31.449Z,25.11
2022-08-27T17:56:01.433Z,24.78
2022-08-27T17:58:29.633Z,24.59
2022-08-27T18:00:57.130Z,24.24
2022-08-27T18:03:24.978Z,24.15
2022-08-27T18:05:54.702Z,24.04
2022-08-27T18:08:22.088Z,24.06
2022-08-27T18:10:53.888Z,24.20
2022-08-27T18:13:21.339Z,24.54
2022-08-27T18:15:50.299Z,24.44
2022-08-27T18:18:18.554Z,24.36
2022-08-27T18:20:46.448Z,24.17
2022-08-27T18:23:18.980Z,24.12
2022-08-27T18:25:49.992Z,24.16
2022-08-27T18:28:18.904Z,24.02
2022-08-27T18:30:51.902Z,24.03
2022-08-27T18:33:19.351Z,23.95
2022-08-27T18:35:49.113Z,23.99
2022-08-27T18:38:19.398Z,23.99
2022-08-27T18:40:49.680Z,24.25
2022-08-27T18:43:22.161Z,23.82
2022-08-27T18:45:50.263Z,24.17
2022-08-27T18:48:22.186Z,23.93
2022-08-27T18:50:55.518Z,23.89
2022-08-27T18:53:23.619Z,24.02
2022-08-27T18:55:52.149Z,23.87
2022-08-27T18:58:22.747Z,23.94
2022-08-27T19:01:02.007Z,23.78
2022-08-27T19:03:33.838Z,23.58
2022-08-27T19:06:02.011Z,23.57
2022-08-27T19:08:37.028Z,23.57
2022-08-27T19:11:04.456Z,23.77
2022-08-27T19:13:34.365Z,23.41
2022-08-27T19:16:09.290Z,23.45
2022-08-27T19:18:40.973Z,23.51
2022-08-27T19:21:08.840Z,23.54
2022-08-27T19:23:36.869Z,23.54
2022-08-27T19:26:05.405Z,23.55
2022-08-27T19:28:39.945Z,23.43
2022-08-27T19:31:11.271Z,23.45
2022-08-27T19:33:39.524Z,23.30
2022-08-27T19:36:12.475Z,23.21
2022-08-27T19:38:46.549Z,23.28
2022-08-27T19:41:14.045Z,23.16
2022-08-27T19:43:45.968Z,23.28
2022-08-27T19:46:17.838Z,23.44
2022-08-27T19:48:45.462Z,23.49
2022-08-27T19:51:14.970Z,23.76
2022-08-27T19:53:42.677Z,23.75
2022-08-27T19:56:15.233Z,23.67
2022-08-27T19:58:43.567Z,23.69
2022-08-27T20:01:12.368Z,23.45
2022-08-27T20:03:40.134Z,23.51
2022-08-27T20:06:09.034Z,23.57
2022-08-27T20:08:36.949Z,23.27
2022-08-27T20:11:04.404Z,23.47
2022-08-27T20:13:33.315Z,23.56
2022-08-27T20:16:02.812Z,23.67
2022-08-27T20:18:30.310Z,23.46
2022-08-27T20:20:57.788Z,23.54
2022-08-27T20:23:25.583Z,23.43
2022-08-27T20:25:56.656Z,23.42
2022-08-27T20:28:39.965Z,23.67
2022-08-27T20:31:08.410Z,23.37
2022-08-27T20:33:38.304Z,23.19
2022-08-27T20:36:08.009Z,23.08
2022-08-27T20:38:35.831Z,23.06
2022-08-27T20:41:04.279Z,23.18
2022-08-27T20:43:31.960Z,23.28
2022-08-27T20:45:59.847Z,23.48
2022-08-27T20:48:28.319Z,23.49
2022-08-27T20:50:56.074Z,23.09
2022-08-27T20:53:23.513Z,23.11
2022-08-27T20:55:50.912Z,23.40
2022-08-27T20:58:37.326Z,23.42
2022-08-27T21:01:04.921Z,23.22
2022-08-27T21:03:32.443Z,23.24
2022-08-27T21:05:59.845Z,23.28
2022-08-27T21:08:29.078Z,23.29
2022-08-27T21:11:00.129Z,23.23
2022-08-27T21:13:28.861Z,23.24
2022-08-27T21:15:56.670Z,23.14
2022-08-27T21:18:29.850Z,23.01
2022-08-27T21:20:59.486Z,23.07
2022-08-27T21:23:28.106Z,22.93
2022-08-27T21:26:07.582Z,23.01
2022-08-27T21:28:36.133Z,23.12
2022-08-27T21:31:03.971Z,23.15
2022-08-27T21:33:33.815Z,22.68
2022-08-27T21:36:11.750Z,22.77
2022-08-27T21:38:40.045Z,22.51
2022-08-27T21:41:08.006Z,22.78
2022-08-27T21:43:35.535Z,22.88
2022-08-27T21:46:03.205Z,23.12
2022-08-27T21:48:30.709Z,23.12
2022-08-27T21:50:58.250Z,23.20
2022-08-27T21:53:25.629Z,22.81
2022-08-27T21:55:54.035Z,22.64
2022-08-27T21:58:26.589Z,22.63
2022-08-27T22:00:55.260Z,22.66
2022-08-27T22:03:23.735Z,22.80
2022-08-27T22:05:51.873Z,23.11
2022-08-27T22:08:21.544Z,22.96
2022-08-27T22:10:54.607Z,22.77
2022-08-27T22:13:22.564Z,22.69
2022-08-27T22:15:50.319Z,22.64
2022-08-27T22:18:18.132Z,22.43
2022-08-27T22:20:52.229Z,22.74
2022-08-27T22:23:20.870Z,22.96
2022-08-27T22:25:49.013Z,22.99
2022-08-27T22:28:17.407Z,22.99
2022-08-27T22:30:46.112Z,22.94
2022-08-27T22:33:14.046Z,22.84
2022-08-27T22:35:42.224Z,23.00
2022-08-27T22:38:09.636Z,22.92
2022-08-27T22:40:38.053Z,22.60
2022-08-27T22:43:06.616Z,22.27
2022-08-27T22:45:34.690Z,23.00
2022-08-27T22:48:02.274Z,23.08
2022-08-27T22:50:29.657Z,23.42
2022-08-27T22:52:59.520Z,23.00
2022-08-27T22:55:26.994Z,22.93
2022-08-27T22:57:57.542Z,23.10
2022-08-27T23:00:29.594Z,23.07
2022-08-27T23:02:57.883Z,22.83
2022-08-27T23:05:28.192Z,23.04
2022-08-27T23:08:11.048Z,22.61
2022-08-27T23:10:39.105Z,22.68
2022-08-27T23:13:07.299Z,22.68
2022-08-27T23:15:35.289Z,22.64
2022-08-27T23:18:02.771Z,22.78
2022-08-27T23:20:31.159Z,22.71
2022-08-27T23:22:58.697Z,22.70
2022-08-27T23:25:47.306Z,22.58
2022-08-27T23:28:15.764Z,22.57
2022-08-27T23:30:45.499Z,22.58
2022-08-27T23:33:13.942Z,22.60
2022-08-27T23:35:48.061Z,22.53
2022-08-27T23:38:17.241Z,22.27
2022-08-27T23:40:45.535Z,22.42
2022-08-27T23:43:12.972Z,21.92
2022-08-27T23:45:40.376Z,22.13
2022-08-27T23:48:08.356Z,22.05
2022-08-27T23:50:36.025Z,22.25
2022-08-27T23:53:05.260Z,22.38
2022-08-27T23:55:33.700Z,22.36
2022-08-27T23:58:01.459Z,22.39
